Terminal Aerodrome Forecast
Issued by NWS Shreveport, LA

Home | Current Version | Previous Version | Text Only | Print | Product List | Glossary On
Versions: 1 2 3 4 5 6 7 8 9 10 11 12 13 14
000
FTUS44 KSHV 220722 AAA
TAFELD
TAF AMD
KELD 220722Z 2207/2306 27011G20KT 5SM RA BR VCTS BKN004 OVC030CB
     FM221000 27011KT 5SM BR VCSH OVC010
     FM221500 27011KT P6SM OVC015
     FM222000 27011G20KT P6SM BKN020
     FM230100 27008KT P6SM BKN030=

USA.gov is the U.S. government's official web portal to all federal, state and local government web resources and services.